Time;durP1;ratioP1;P1;durP2;ratioP2;P2;SDS_P1;SDS_P2;PMS_P1;PMS_P2;Temp;Humidity;BMP_temperature;BMP_pressure;BME280_temperature;BME280_humidity;BME280_pressure;Samples;Min_cycle;Max_cycle;Signal;HPM_P1;HPM_P2
2022/10/19 00:01:41;;;;;;;19.08;12.02;;;19.70;58.10;;;;;;5013097;28;20014;-86
2022/10/19 00:04:07;;;;;;;17.75;12.23;;;19.80;57.90;;;;;;4996588;28;20021;-85
2022/10/19 00:06:35;;;;;;;17.80;12.43;;;19.80;57.60;;;;;;5012795;28;20121;-80
2022/10/19 00:09:12;;;;;;;18.23;13.23;;;19.80;57.60;;;;;;5012528;28;20014;-85
2022/10/19 00:11:40;;;;;;;19.15;13.25;;;19.60;57.90;;;;;;5012438;28;20036;-86
2022/10/19 00:14:08;;;;;;;18.92;13.55;;;19.60;57.90;;;;;;5013905;28;20108;-85
2022/10/19 00:16:36;;;;;;;17.88;12.60;;;19.60;58.10;;;;;;5014132;28;20017;-82
2022/10/19 00:19:07;;;;;;;16.85;11.65;;;19.50;58.20;;;;;;5012277;28;20013;-84
2022/10/19 00:21:32;;;;;;;;;;;19.40;58.30;;;;;;5014096;28;20014;-84
2022/10/19 00:23:58;;;;;;;16.15;11.45;;;19.20;58.60;;;;;;5013845;28;20249;-86
2022/10/19 00:26:24;;;;;;;17.45;12.10;;;19.20;59.20;;;;;;5013612;28;20026;-84
2022/10/19 00:28:53;;;;;;;15.25;11.35;;;19.30;58.70;;;;;;5013715;28;20037;-86
2022/10/19 00:31:19;;;;;;;19.02;12.27;;;19.50;58.40;;;;;;5012857;28;20018;-84
2022/10/19 00:33:46;;;;;;;16.33;11.52;;;19.50;58.30;;;;;;5014022;28;20338;-84
2022/10/19 00:36:22;;;;;;;17.52;10.60;;;19.60;58.50;;;;;;5013492;28;20026;-80
2022/10/19 00:38:49;;;;;;;15.07;9.88;;;19.60;58.60;;;;;;5013554;28;20049;-87
2022/10/19 00:41:15;;;;;;;14.68;10.57;;;19.50;58.60;;;;;;5013778;28;20022;-85
2022/10/19 00:43:59;;;;;;;16.13;10.18;;;19.50;58.80;;;;;;5013291;28;20037;-83
2022/10/19 00:46:27;;;;;;;14.27;10.02;;;19.60;58.60;;;;;;5013643;28;20029;-82
2022/10/19 00:48:57;;;;;;;14.15;10.65;;;19.70;58.40;;;;;;5017368;28;20026;-86
2022/10/19 00:51:26;;;;;;;19.98;10.60;;;19.70;58.20;;;;;;5017655;28;20380;-82
2022/10/19 00:53:52;;;;;;;16.58;10.88;;;19.70;58.40;;;;;;5016544;28;20104;-81
2022/10/19 00:56:18;;;;;;;15.20;10.50;;;19.60;58.30;;;;;;5016335;28;20026;-91
2022/10/19 00:58:44;;;;;;;18.55;10.75;;;19.60;58.60;;;;;;5017410;28;20041;-82
2022/10/19 01:01:15;;;;;;;16.38;11.05;;;19.80;58.40;;;;;;5016197;28;20022;-84
2022/10/19 01:03:41;;;;;;;18.27;10.40;;;19.80;58.50;;;;;;5016162;28;20052;-84
2022/10/19 01:06:08;;;;;;;17.17;11.02;;;19.80;58.70;;;;;;5016127;28;20473;-85
2022/10/19 01:08:33;;;;;;;16.90;11.57;;;19.50;59.10;;;;;;5017538;28;20056;-85
2022/10/19 01:11:18;;;;;;;13.98;10.80;;;19.40;59.70;;;;;;5017232;28;20061;-83
2022/10/19 01:13:59;;;;;;;16.85;11.70;;;19.60;59.40;;;;;;5016071;28;20030;-88
2022/10/19 01:16:56;;;;;;;19.25;11.77;;;19.50;59.40;;;;;;5016146;28;20458;-85
2022/10/19 01:19:27;;;;;;;16.60;10.93;;;19.50;59.30;;;;;;5017034;28;20028;-84
2022/10/19 01:22:26;;;;;;;16.27;12.02;;;19.50;59.20;;;;;;5030915;28;20022;-86
2022/10/19 01:25:13;;;;;;;17.50;12.18;;;19.50;59.20;;;;;;5036787;28;20033;-90
2022/10/19 01:28:25;;;;;;;15.50;11.23;;;19.30;59.30;;;;;;5036922;28;20021;-83
2022/10/19 01:30:59;;;;;;;21.10;13.45;;;19.10;59.80;;;;;;4956358;29;20471;-84
2022/10/19 01:33:47;;;;;;;19.77;11.98;;;19.10;59.80;;;;;;4940406;28;20050;-82
2022/10/19 01:36:31;;;;;;;18.35;12.43;;;19.00;59.70;;;;;;4940262;29;20398;-79
2022/10/19 01:39:12;;;;;;;19.13;12.98;;;19.00;59.80;;;;;;4937011;29;20063;-84
2022/10/19 01:41:53;;;;;;;17.52;12.13;;;19.00;59.80;;;;;;4942150;29;20035;-80
2022/10/19 01:44:28;;;;;;;19.05;12.82;;;19.10;59.30;;;;;;4955765;28;20070;-87
2022/10/19 01:47:08;;;;;;;17.15;12.65;;;19.00;59.60;;;;;;4938986;29;20046;-82
2022/10/19 01:49:40;;;;;;;21.42;12.93;;;19.10;59.40;;;;;;4952060;29;20020;-80
2022/10/19 01:52:09;;;;;;;18.75;13.00;;;19.20;60.10;;;;;;4937164;29;20031;-82
2022/10/19 01:54:43;;;;;;;22.38;13.15;;;19.30;59.80;;;;;;4944784;29;20023;-85
2022/10/19 01:57:12;;;;;;;18.80;12.52;;;19.50;59.10;;;;;;4956128;29;20094;-85
2022/10/19 01:59:39;;;;;;;19.27;13.18;;;19.60;59.00;;;;;;4955539;28;20039;-83
2022/10/19 02:02:07;;;;;;;18.42;13.13;;;19.70;58.60;;;;;;4955771;29;20497;-88
2022/10/19 02:04:35;;;;;;;18.30;12.73;;;19.60;58.30;;;;;;4929345;29;20069;-83
2022/10/19 02:07:03;;;;;;;22.42;12.80;;;19.80;58.20;;;;;;4988942;28;20022;-88
2022/10/19 02:09:29;;;;;;;18.70;13.32;;;19.90;57.70;;;;;;5007895;28;20380;-81
2022/10/19 02:11:58;;;;;;;18.17;12.45;;;20.00;57.50;;;;;;5016731;28;20057;-86
2022/10/19 02:14:30;;;;;;;17.80;12.35;;;19.90;57.30;;;;;;5021789;28;20021;-81
2022/10/19 02:17:06;;;;;;;21.58;12.57;;;19.80;57.20;;;;;;5034339;28;20025;-82
2022/10/19 02:19:33;;;;;;;18.33;12.75;;;19.90;57.60;;;;;;5021879;28;20041;-82
2022/10/19 02:21:59;;;;;;;18.42;13.07;;;20.20;57.20;;;;;;5034840;28;20044;-84
2022/10/19 02:24:25;;;;;;;19.45;12.15;;;20.20;57.40;;;;;;5035096;28;20029;-87
2022/10/19 02:26:52;;;;;;;17.98;12.65;;;20.30;57.10;;;;;;5035053;28;20048;-85
2022/10/19 02:29:18;;;;;;;17.70;13.38;;;20.20;57.60;;;;;;5017622;28;20036;-85
2022/10/19 02:31:44;;;;;;;18.52;13.07;;;20.20;57.60;;;;;;5017445;28;20423;-87
2022/10/19 02:34:11;;;;;;;17.58;12.93;;;20.00;58.10;;;;;;5017714;28;20591;-89
2022/10/19 02:36:36;;;;;;;20.13;13.43;;;19.90;58.20;;;;;;5013390;28;20049;-87
2022/10/19 02:39:03;;;;;;;19.80;13.82;;;19.80;58.40;;;;;;5009509;28;20422;-89
2022/10/19 02:41:41;;;;;;;20.63;13.38;;;20.00;58.00;;;;;;5034691;28;20053;-81
2022/10/19 02:44:18;;;;;;;18.17;12.68;;;20.10;57.70;;;;;;5016716;28;20028;-87
2022/10/19 02:46:47;;;;;;;21.98;13.93;;;19.90;58.00;;;;;;5035258;28;20029;-82
2022/10/19 02:49:13;;;;;;;20.52;13.63;;;19.70;58.50;;;;;;5010890;28;20106;-90
2022/10/19 02:51:55;;;;;;;22.08;14.23;;;19.60;58.40;;;;;;5007466;28;20026;-87
2022/10/19 02:54:23;;;;;;;18.67;13.63;;;19.80;58.20;;;;;;5034569;28;20014;-85
2022/10/19 02:56:49;;;;;;;19.70;12.60;;;20.10;57.40;;;;;;5016843;28;20159;-80
2022/10/19 02:59:14;;;;;;;18.63;13.45;;;20.20;57.40;;;;;;5013595;28;20484;-84
2022/10/19 03:01:40;;;;;;;18.80;13.65;;;20.30;57.50;;;;;;5021932;28;20076;-82
2022/10/19 03:04:06;;;;;;;19.92;13.82;;;20.40;57.60;;;;;;5014584;28;20033;-83
2022/10/19 03:06:31;;;;;;;20.88;13.75;;;20.30;57.90;;;;;;4997474;28;20030;-85
2022/10/19 03:08:57;;;;;;;20.88;14.20;;;20.30;58.30;;;;;;5014949;28;20072;-87
2022/10/19 03:11:22;;;;;;;18.13;12.43;;;20.30;57.20;;;;;;5021782;28;20136;-87
2022/10/19 03:13:48;;;;;;;17.58;12.30;;;20.20;56.80;;;;;;5015381;28;20037;-85
2022/10/19 03:16:14;;;;;;;16.17;12.02;;;20.00;56.90;;;;;;5016637;28;20113;-92
2022/10/19 03:18:40;;;;;;;25.83;12.38;;;20.00;56.70;;;;;;5002067;28;20029;-88
2022/10/19 03:21:11;;;;;;;20.13;13.07;;;19.90;57.30;;;;;;5017138;28;20018;-81
2022/10/19 03:23:40;;;;;;;17.50;11.07;;;20.10;56.80;;;;;;5011369;28;20388;-85
2022/10/19 03:26:15;;;;;;;15.52;11.80;;;20.10;56.60;;;;;;5005423;28;20439;-85
2022/10/19 03:28:47;;;;;;;20.80;12.30;;;20.20;56.50;;;;;;5008285;28;20048;-80
2022/10/19 03:31:13;;;;;;;16.08;12.07;;;20.20;56.40;;;;;;5033741;28;20037;-80
2022/10/19 03:33:38;;;;;;;19.80;11.93;;;20.20;56.30;;;;;;5004788;28;20060;-85
2022/10/19 03:36:22;;;;;;;14.90;10.95;;;20.30;56.20;;;;;;5014014;28;20036;-88
2022/10/19 03:38:55;;;;;;;16.25;10.93;;;20.30;56.10;;;;;;5020574;28;20021;-84
2022/10/19 03:41:22;;;;;;;17.77;11.88;;;20.20;56.40;;;;;;5028150;28;20388;-90
2022/10/19 03:43:48;;;;;;;17.50;12.23;;;20.30;56.80;;;;;;5033759;28;20436;-85
2022/10/19 03:46:14;;;;;;;19.48;12.48;;;20.30;56.90;;;;;;5033443;28;20535;-85
2022/10/19 03:48:40;;;;;;;18.23;11.73;;;20.30;57.20;;;;;;5033925;28;20022;-85
2022/10/19 03:51:08;;;;;;;18.73;12.45;;;20.30;56.80;;;;;;5015662;28;20452;-88
2022/10/19 03:53:34;;;;;;;21.85;13.43;;;20.30;56.90;;;;;;5015744;28;20108;-83
2022/10/19 03:56:05;;;;;;;18.27;12.10;;;20.20;57.10;;;;;;5033458;28;20104;-81
2022/10/19 03:58:33;;;;;;;18.63;12.07;;;20.40;57.00;;;;;;5015034;28;20022;-82
2022/10/19 04:00:59;;;;;;;17.17;12.20;;;20.50;56.70;;;;;;5033534;28;20036;-85
2022/10/19 04:03:25;;;;;;;19.30;12.27;;;20.50;56.50;;;;;;5012169;28;20424;-85
2022/10/19 04:05:51;;;;;;;17.40;12.27;;;20.40;56.90;;;;;;5007780;28;20464;-79
2022/10/19 04:08:17;;;;;;;19.23;12.40;;;20.40;56.80;;;;;;5033507;28;20022;-79
2022/10/19 04:10:43;;;;;;;16.13;11.98;;;20.30;56.90;;;;;;5016213;28;20026;-85
2022/10/19 04:13:09;;;;;;;19.10;11.95;;;20.00;57.10;;;;;;5016093;28;20060;-82
2022/10/19 04:15:38;;;;;;;18.20;12.15;;;20.10;57.10;;;;;;5015672;28;20030;-83
2022/10/19 04:18:07;;;;;;;19.00;12.25;;;20.10;57.10;;;;;;5016368;28;20064;-86
2022/10/19 04:20:32;;;;;;;17.90;11.48;;;20.10;57.10;;;;;;5016099;28;20461;-82
2022/10/19 04:22:58;;;;;;;19.67;12.10;;;20.00;57.40;;;;;;5016096;28;20033;-85
2022/10/19 04:25:24;;;;;;;20.05;11.88;;;20.00;57.80;;;;;;5016105;28;20056;-86
2022/10/19 04:27:49;;;;;;;16.55;11.35;;;20.00;57.60;;;;;;5015747;28;20021;-78
2022/10/19 04:30:15;;;;;;;19.20;12.10;;;19.80;58.00;;;;;;5032521;28;20033;-86
2022/10/19 04:32:41;;;;;;;16.92;11.52;;;19.70;58.50;;;;;;5033565;28;20462;-87
2022/10/19 04:35:06;;;;;;;17.80;12.38;;;19.60;58.80;;;;;;5016369;28;20018;-81
2022/10/19 04:37:32;;;;;;;18.38;11.90;;;19.60;58.60;;;;;;5013351;28;20014;-85
2022/10/19 04:39:58;;;;;;;19.70;11.03;;;19.70;58.70;;;;;;4319967;28;10000676;-85
2022/10/19 04:42:23;;;;;;;16.85;11.88;;;19.70;58.60;;;;;;5002681;28;20495;-88
2022/10/19 04:44:49;;;;;;;16.90;11.57;;;19.70;58.70;;;;;;5013260;28;20607;-81
2022/10/19 04:47:15;;;;;;;17.40;12.88;;;19.20;59.90;;;;;;5014225;28;20057;-82
2022/10/19 04:49:40;;;;;;;20.63;12.75;;;19.30;60.30;;;;;;5009513;28;20109;-79
2022/10/19 04:52:06;;;;;;;19.20;12.23;;;19.50;59.60;;;;;;5030700;28;20024;-84
2022/10/19 04:54:32;;;;;;;18.92;12.57;;;19.80;59.10;;;;;;5030444;28;20032;-84
2022/10/19 04:56:57;;;;;;;18.58;12.70;;;20.00;58.70;;;;;;5014272;28;20029;-91
2022/10/19 04:59:23;;;;;;;19.15;11.88;;;20.20;58.30;;;;;;5015061;28;20029;-84
2022/10/19 05:01:49;;;;;;;22.08;12.95;;;20.40;57.70;;;;;;5011603;28;20030;-81
2022/10/19 05:04:15;;;;;;;16.48;12.45;;;20.40;57.80;;;;;;5010324;28;20034;-85
2022/10/19 05:06:40;;;;;;;20.67;12.55;;;20.50;58.30;;;;;;5012134;28;20025;-83
2022/10/19 05:09:06;;;;;;;17.50;12.25;;;20.50;57.80;;;;;;5024411;28;20048;-82
2022/10/19 05:11:31;;;;;;;16.48;12.35;;;20.70;57.40;;;;;;5005551;28;20032;-80
2022/10/19 05:13:57;;;;;;;18.67;13.13;;;20.80;57.20;;;;;;5030898;28;20727;-87
2022/10/19 05:16:24;;;;;;;20.35;13.30;;;20.60;57.70;;;;;;5022950;28;20061;-80
2022/10/19 05:18:54;;;;;;;17.42;13.15;;;20.50;57.80;;;;;;5014956;28;20405;-82
2022/10/19 05:21:20;;;;;;;18.65;13.35;;;20.30;58.30;;;;;;5013619;28;20021;-84
2022/10/19 05:23:49;;;;;;;18.05;12.60;;;20.20;58.20;;;;;;5015241;28;20018;-84
2022/10/19 05:26:18;;;;;;;17.27;13.00;;;20.20;58.70;;;;;;5013726;28;20240;-83
2022/10/19 05:28:49;;;;;;;18.55;13.18;;;20.30;58.50;;;;;;5014621;28;20021;-78
2022/10/19 05:31:19;;;;;;;18.98;13.13;;;20.50;58.10;;;;;;5029381;28;20021;-83
2022/10/19 05:33:46;;;;;;;18.55;12.88;;;20.40;58.30;;;;;;5023158;28;20024;-85
2022/10/19 05:36:45;;;;;;;19.55;12.75;;;20.50;58.30;;;;;;5035661;28;20090;-87
2022/10/19 05:39:16;;;;;;;19.35;12.77;;;20.60;58.20;;;;;;4946284;28;20031;-87
2022/10/19 05:41:43;;;;;;;18.85;13.00;;;20.60;58.00;;;;;;4960190;28;20406;-85
2022/10/19 05:44:17;;;;;;;16.75;11.82;;;20.40;58.50;;;;;;4957921;28;20034;-85
2022/10/19 05:46:43;;;;;;;18.08;12.10;;;20.30;58.70;;;;;;4958235;28;20414;-91
2022/10/19 05:49:10;;;;;;;17.73;12.40;;;20.30;58.60;;;;;;4957775;28;20031;-84
2022/10/19 05:51:37;;;;;;;19.95;11.57;;;20.20;58.60;;;;;;4973746;28;20038;-88
2022/10/19 05:54:03;;;;;;;17.58;11.20;;;20.20;59.10;;;;;;4956778;28;20546;-86
2022/10/19 05:56:29;;;;;;;17.90;11.32;;;20.20;58.80;;;;;;4948977;28;20035;-84
2022/10/19 05:58:58;;;;;;;15.52;11.88;;;20.30;59.10;;;;;;4950439;28;20066;-84
2022/10/19 06:01:24;;;;;;;21.30;12.13;;;20.40;58.90;;;;;;4973902;28;20031;-80
2022/10/19 06:03:51;;;;;;;17.02;12.00;;;20.50;58.40;;;;;;4956740;28;20102;-86
2022/10/19 06:06:19;;;;;;;21.75;12.75;;;20.30;59.00;;;;;;4939344;28;20127;-85
2022/10/19 06:08:45;;;;;;;18.38;12.50;;;20.20;59.30;;;;;;4955486;28;20393;-85
2022/10/19 06:11:12;;;;;;;16.05;12.00;;;20.00;59.50;;;;;;4955299;28;20059;-80
2022/10/19 06:13:40;;;;;;;17.33;11.52;;;20.20;59.60;;;;;;4955952;28;20019;-85
2022/10/19 06:16:07;;;;;;;18.35;11.63;;;20.20;59.30;;;;;;5018045;28;20021;-82
2022/10/19 06:18:34;;;;;;;19.25;11.73;;;20.10;59.60;;;;;;5018479;28;20083;-83
2022/10/19 06:21:06;;;;;;;17.33;12.10;;;20.20;59.70;;;;;;5022347;28;20013;-87
2022/10/19 06:23:32;;;;;;;22.35;11.98;;;20.50;59.10;;;;;;5029801;28;20022;-87
2022/10/19 06:26:00;;;;;;;17.15;12.05;;;20.40;59.30;;;;;;5035021;28;20036;-85
2022/10/19 06:28:26;;;;;;;18.10;12.15;;;20.30;59.20;;;;;;5017782;28;20368;-86
2022/10/19 06:30:52;;;;;;;16.85;12.27;;;20.40;59.20;;;;;;5017619;28;20464;-90
2022/10/19 06:33:17;;;;;;;18.15;13.40;;;20.40;59.10;;;;;;5017883;28;20021;-84
2022/10/19 06:35:43;;;;;;;17.58;12.45;;;20.40;59.20;;;;;;5017775;28;20025;-81
2022/10/19 06:38:09;;;;;;;17.80;13.55;;;20.60;59.10;;;;;;5017643;28;20025;-86
2022/10/19 06:40:35;;;;;;;23.77;12.55;;;20.70;59.20;;;;;;5017403;28;20045;-84
2022/10/19 06:43:01;;;;;;;15.50;11.63;;;20.80;58.80;;;;;;5017458;28;20457;-84
2022/10/19 06:45:26;;;;;;;20.27;12.55;;;20.80;58.80;;;;;;5016691;28;20095;-83
2022/10/19 06:47:52;;;;;;;15.98;12.20;;;20.60;59.20;;;;;;5017385;28;20021;-85
2022/10/19 06:50:19;;;;;;;18.23;12.27;;;20.70;59.30;;;;;;5017290;28;20025;-85
2022/10/19 06:52:45;;;;;;;15.60;12.15;;;20.90;58.80;;;;;;5017411;28;20017;-85
2022/10/19 06:55:11;;;;;;;18.52;11.73;;;21.10;58.30;;;;;;5017062;28;20037;-84
2022/10/19 06:57:37;;;;;;;16.27;11.73;;;21.00;58.80;;;;;;5017014;28;20018;-83
2022/10/19 07:00:04;;;;;;;15.32;11.27;;;21.00;58.50;;;;;;5017339;28;20029;-83
2022/10/19 07:02:29;;;;;;;16.63;11.43;;;21.10;58.70;;;;;;5017060;28;20044;-84
2022/10/19 07:04:55;;;;;;;16.42;10.85;;;21.20;58.60;;;;;;5017271;28;20368;-83
2022/10/19 07:07:21;;;;;;;18.08;11.20;;;21.20;59.00;;;;;;5016957;28;20014;-85
2022/10/19 07:09:47;;;;;;;17.20;11.43;;;21.20;58.90;;;;;;5016888;28;20040;-81
2022/10/19 07:12:13;;;;;;;16.75;11.77;;;21.00;58.80;;;;;;5016793;28;20029;-84
2022/10/19 07:14:39;;;;;;;17.27;11.30;;;21.10;59.30;;;;;;5016644;28;20021;-84
2022/10/19 07:17:06;;;;;;;16.02;10.93;;;21.10;59.20;;;;;;5016845;28;20028;-84
2022/10/19 07:19:32;;;;;;;16.52;10.80;;;21.10;59.00;;;;;;5034473;28;20063;-82
2022/10/19 07:21:57;;;;;;;13.02;10.02;;;21.40;58.60;;;;;;5016918;28;20025;-83
2022/10/19 07:24:23;;;;;;;14.15;9.82;;;21.70;58.20;;;;;;5016679;28;20082;-85
2022/10/19 07:26:49;;;;;;;13.80;10.50;;;21.90;58.10;;;;;;4327967;28;10000758;-83
2022/10/19 07:29:15;;;;;;;14.45;9.85;;;21.90;58.00;;;;;;4997263;28;20105;-88
2022/10/19 07:31:40;;;;;;;14.38;9.57;;;21.90;58.00;;;;;;4996924;28;20022;-84
2022/10/19 07:34:06;;;;;;;12.80;9.48;;;22.00;57.70;;;;;;4996760;28;20026;-88
2022/10/19 07:36:33;;;;;;;12.70;8.65;;;22.00;57.80;;;;;;5014588;28;20021;-86
2022/10/19 07:39:05;;;;;;;13.80;9.25;;;22.10;58.10;;;;;;4996892;28;20025;-84
2022/10/19 07:41:31;;;;;;;13.07;9.20;;;22.30;57.90;;;;;;5013879;28;20489;-84
2022/10/19 07:43:57;;;;;;;14.40;8.98;;;22.30;57.60;;;;;;4996903;28;20404;-82
2022/10/19 07:46:26;;;;;;;13.75;9.98;;;22.50;57.30;;;;;;4996933;28;20468;-85
2022/10/19 07:48:52;;;;;;;12.85;8.52;;;22.60;57.30;;;;;;4996482;28;20082;-83
2022/10/19 07:51:19;;;;;;;14.75;9.75;;;22.60;57.00;;;;;;5014015;28;20026;-83
2022/10/19 07:53:45;;;;;;;12.75;8.70;;;22.70;57.00;;;;;;4996459;28;20022;-85
2022/10/19 07:56:14;;;;;;;13.70;8.60;;;22.80;57.20;;;;;;4996496;28;20025;-84
2022/10/19 07:58:40;;;;;;;11.65;8.57;;;22.80;57.00;;;;;;4996269;28;20373;-85
2022/10/19 08:01:09;;;;;;;10.52;8.27;;;23.10;56.50;;;;;;4996496;28;20026;-83
2022/10/19 08:03:35;;;;;;;15.48;11.05;;;23.30;56.60;;;;;;4996423;28;20104;-83
2022/10/19 08:06:03;;;;;;;15.65;11.73;;;23.20;56.20;;;;;;4996705;28;20030;-90
2022/10/19 08:08:29;;;;;;;13.25;8.88;;;23.40;56.10;;;;;;4996358;28;20018;-83
2022/10/19 08:10:55;;;;;;;12.90;8.10;;;23.40;56.20;;;;;;4996191;28;20022;-83
2022/10/19 08:13:22;;;;;;;14.50;8.73;;;23.20;56.50;;;;;;4996310;28;20042;-85
2022/10/19 08:15:48;;;;;;;12.75;8.07;;;23.10;56.70;;;;;;4996475;28;20026;-90
2022/10/19 08:18:15;;;;;;;10.38;7.80;;;23.20;56.50;;;;;;4996141;28;20022;-83
2022/10/19 08:20:42;;;;;;;9.63;7.70;;;23.40;56.80;;;;;;4996440;28;20018;-85
2022/10/19 08:23:08;;;;;;;12.52;8.93;;;23.50;56.10;;;;;;4996223;28;20018;-85
2022/10/19 08:25:34;;;;;;;11.45;8.10;;;23.50;56.30;;;;;;4996198;28;20036;-84
2022/10/19 08:28:00;;;;;;;9.93;7.72;;;23.50;56.20;;;;;;4995997;28;20072;-83
2022/10/19 08:30:25;;;;;;;13.43;10.02;;;23.80;56.00;;;;;;4996397;28;20465;-85
2022/10/19 08:32:51;;;;;;;10.82;7.65;;;23.80;56.20;;;;;;4996004;28;20469;-83
2022/10/19 08:35:17;;;;;;;10.20;7.20;;;23.90;56.00;;;;;;4996027;28;20047;-80
2022/10/19 08:37:42;;;;;;;8.63;6.72;;;24.00;55.90;;;;;;4996311;28;20049;-85
2022/10/19 08:40:24;;;;;;;10.57;8.32;;;24.10;55.70;;;;;;4995992;28;20478;-89
2022/10/19 08:43:02;;;;;;;10.75;6.95;;;24.40;55.60;;;;;;4997097;28;20109;-85
2022/10/19 08:45:40;;;;;;;11.35;6.70;;;24.60;54.70;;;;;;4996079;28;20037;-85
2022/10/19 08:48:15;;;;;;;9.18;6.50;;;24.50;55.00;;;;;;4996113;28;20025;-83
2022/10/19 08:50:43;;;;;;;7.55;5.93;;;24.70;54.90;;;;;;4996080;28;20045;-84
2022/10/19 08:53:26;;;;;;;7.93;5.70;;;24.90;54.60;;;;;;4995984;28;20018;-82
2022/10/19 08:56:08;;;;;;;8.95;5.65;;;25.00;54.70;;;;;;4995852;28;20113;-86
2022/10/19 08:58:55;;;;;;;7.47;5.72;;;25.10;54.70;;;;;;5013680;28;20025;-83
2022/10/19 09:01:38;;;;;;;7.38;5.70;;;25.20;54.20;;;;;;4995865;28;20084;-84
2022/10/19 09:04:07;;;;;;;7.68;5.88;;;25.30;54.10;;;;;;4996286;28;20026;-85
2022/10/19 09:06:43;;;;;;;7.82;5.22;;;25.30;54.30;;;;;;4996576;28;20103;-81
2022/10/19 09:09:12;;;;;;;9.00;5.55;;;25.40;54.60;;;;;;4998008;28;20077;-85
2022/10/19 09:11:45;;;;;;;9.18;5.75;;;25.50;54.30;;;;;;4999762;28;20025;-82
2022/10/19 09:14:16;;;;;;;7.32;5.35;;;25.70;53.90;;;;;;4999549;28;20021;-95
2022/10/19 09:16:42;;;;;;;6.32;4.70;;;25.90;53.40;;;;;;4999583;28;20017;-87
2022/10/19 09:19:30;;;;;;;7.45;4.65;;;25.90;53.20;;;;;;4999787;28;20353;-89
2022/10/19 09:22:00;;;;;;;6.28;4.10;;;25.80;53.60;;;;;;4999333;28;20022;-81
2022/10/19 09:24:33;;;;;;;5.80;4.03;;;25.80;53.30;;;;;;4999534;28;20030;-87
2022/10/19 09:27:00;;;;;;;6.30;3.70;;;25.90;52.90;;;;;;4999922;28;20026;-82
2022/10/19 09:29:39;;;;;;;4.63;3.60;;;25.80;52.50;;;;;;4999811;28;20032;-82
2022/10/19 09:32:14;;;;;;;4.30;3.20;;;25.80;52.50;;;;;;4999237;28;20411;-89
2022/10/19 09:34:45;;;;;;;4.78;3.25;;;26.00;51.70;;;;;;5016354;28;20033;-82
2022/10/19 09:37:12;;;;;;;4.68;3.28;;;25.80;52.60;;;;;;4998709;28;20103;-81
2022/10/19 09:39:37;;;;;;;4.22;3.10;;;26.20;52.30;;;;;;4999282;28;20453;-84
2022/10/19 09:42:23;;;;;;;4.20;3.00;;;26.30;50.70;;;;;;4998906;28;20092;-83
2022/10/19 09:44:50;;;;;;;4.25;2.67;;;26.30;51.50;;;;;;5016684;28;20033;-83
2022/10/19 09:47:16;;;;;;;4.95;2.92;;;26.40;50.70;;;;;;4999302;28;20022;-80
2022/10/19 09:49:45;;;;;;;3.95;2.95;;;26.60;50.70;;;;;;4999010;28;20120;-84
2022/10/19 09:52:38;;;;;;;8.80;6.13;;;26.60;49.90;;;;;;4999015;28;20022;-87
2022/10/19 09:55:16;;;;;;;4.28;3.10;;;26.40;50.00;;;;;;4998570;28;20404;-84
2022/10/19 09:57:47;;;;;;;4.35;3.10;;;26.30;49.60;;;;;;5000173;28;20346;-83
2022/10/19 10:00:21;;;;;;;4.63;2.80;;;26.40;50.00;;;;;;5016168;28;20515;-83
2022/10/19 10:02:54;;;;;;;6.68;3.20;;;26.60;49.50;;;;;;4998341;28;20021;-80
2022/10/19 10:05:32;;;;;;;5.13;3.20;;;26.30;48.80;;;;;;5015744;28;20095;-81
2022/10/19 10:07:57;;;;;;;4.35;3.00;;;26.30;49.20;;;;;;4998664;28;20297;-83
2022/10/19 10:10:31;;;;;;;4.50;3.28;;;26.00;50.30;;;;;;5016027;28;20022;-88
2022/10/19 10:12:58;;;;;;;5.40;3.00;;;26.20;50.10;;;;;;4997996;28;20018;-87
2022/10/19 10:15:29;;;;;;;3.78;2.47;;;26.30;50.50;;;;;;4998192;28;20022;-82
2022/10/19 10:17:56;;;;;;;4.75;3.35;;;26.60;49.90;;;;;;5015826;28;20045;-82
2022/10/19 10:20:22;;;;;;;3.80;2.63;;;26.30;49.00;;;;;;5015149;28;20026;-82
2022/10/19 10:22:56;;;;;;;4.25;2.80;;;26.30;49.90;;;;;;5016042;28;20018;-83
2022/10/19 10:25:29;;;;;;;3.60;2.53;;;26.30;49.20;;;;;;4998486;28;20040;-85
2022/10/19 10:28:01;;;;;;;3.20;2.20;;;26.30;49.40;;;;;;4982559;28;20076;-91
2022/10/19 10:30:32;;;;;;;3.28;2.20;;;26.10;48.00;;;;;;4998426;28;20361;-93
2022/10/19 10:32:59;;;;;;;3.35;2.10;;;25.70;47.40;;;;;;4998118;28;20108;-87
2022/10/19 10:35:34;;;;;;;3.50;2.22;;;25.50;47.90;;;;;;5015655;28;20032;-87
2022/10/19 10:38:16;;;;;;;3.90;2.10;;;25.80;48.20;;;;;;4998294;28;20030;-82
2022/10/19 10:40:55;;;;;;;4.20;2.40;;;25.80;48.10;;;;;;4998091;28;20089;-83
2022/10/19 10:43:32;;;;;;;3.20;2.30;;;25.70;47.10;;;;;;4993329;28;20022;-87
2022/10/19 10:46:13;;;;;;;3.00;2.10;;;25.90;47.60;;;;;;5011528;28;20083;-84
2022/10/19 10:48:43;;;;;;;3.30;2.13;;;26.30;47.10;;;;;;5015048;28;20014;-83
2022/10/19 10:51:20;;;;;;;4.55;2.28;;;26.90;47.00;;;;;;4998022;28;20117;-83
2022/10/19 10:53:47;;;;;;;3.95;2.10;;;27.60;46.40;;;;;;4997751;28;20483;-85
2022/10/19 10:56:23;;;;;;;4.55;2.53;;;27.80;46.00;;;;;;4998094;28;20365;-84
2022/10/19 10:59:03;;;;;;;3.50;2.38;;;27.30;45.30;;;;;;5015575;28;20026;-86
2022/10/19 11:01:34;;;;;;;5.13;2.40;;;26.60;46.40;;;;;;4997600;28;20037;-87
2022/10/19 11:04:05;;;;;;;3.58;2.50;;;26.20;47.60;;;;;;4997895;28;20049;-86
2022/10/19 11:06:35;;;;;;;5.15;2.72;;;26.20;47.80;;;;;;4997471;28;20120;-85
2022/10/19 11:09:28;;;;;;;3.45;2.30;;;26.00;47.90;;;;;;5014778;28;20025;-82
2022/10/19 11:11:58;;;;;;;3.95;2.75;;;25.70;48.00;;;;;;4997736;28;20405;-89
2022/10/19 11:14:27;;;;;;;7.35;3.25;;;25.40;48.80;;;;;;4997556;28;20026;-87
2022/10/19 11:16:56;;;;;;;5.28;3.28;;;25.20;48.10;;;;;;5014257;28;20034;-85
2022/10/19 11:19:43;;;;;;;9.02;2.97;;;25.10;47.60;;;;;;5014804;28;20391;-83
2022/10/19 11:22:33;;;;;;;4.00;2.33;;;25.10;48.60;;;;;;4998033;28;20092;-81
2022/10/19 11:25:33;;;;;;;3.50;2.43;;;24.80;48.20;;;;;;4997550;28;20436;-84
2022/10/19 11:28:05;;;;;;;;;;;24.90;48.70;;;;;;4997329;28;20266;-83
2022/10/19 11:30:39;;;;;;;4.82;2.42;;;25.20;48.90;;;;;;5014923;28;19992;-89
2022/10/19 11:33:27;;;;;;;4.10;2.85;;;25.20;48.80;;;;;;4996960;28;20025;-87
2022/10/19 11:35:58;;;;;;;3.72;2.30;;;25.20;48.90;;;;;;5015062;28;20420;-84
2022/10/19 11:38:35;;;;;;;4.25;2.70;;;25.30;47.90;;;;;;5014406;28;20017;-84
2022/10/19 11:41:57;;;;;;;3.60;2.70;;;25.10;47.70;;;;;;5014148;28;20037;-84
2022/10/19 11:44:44;;;;;;;4.38;2.70;;;25.30;48.40;;;;;;4957185;28;20173;-87
2022/10/19 11:47:12;;;;;;;3.83;2.65;;;25.30;48.60;;;;;;4957677;28;20034;-86
2022/10/19 11:50:09;;;;;;;3.83;2.58;;;25.30;48.10;;;;;;4973258;28;20105;-81
2022/10/19 11:52:49;;;;;;;3.72;2.50;;;25.40;48.50;;;;;;4916204;29;20032;-85
2022/10/19 11:55:49;;;;;;;4.13;2.47;;;25.40;47.70;;;;;;4916059;29;20028;-89
2022/10/19 11:58:27;;;;;;;4.10;2.50;;;25.10;48.20;;;;;;4915831;29;20028;-84
2022/10/19 12:01:11;;;;;;;3.20;2.10;;;25.50;48.60;;;;;;4915756;29;20031;-81
2022/10/19 12:04:04;;;;;;;4.35;2.10;;;25.40;47.70;;;;;;4915539;29;20432;-86
2022/10/19 12:06:48;;;;;;;7.30;2.15;;;25.60;48.30;;;;;;4915717;29;20051;-90
2022/10/19 12:09:26;;;;;;;3.70;2.20;;;25.70;47.90;;;;;;4915551;29;20040;-90
2022/10/19 12:12:34;;;;;;;4.85;2.30;;;25.60;48.00;;;;;;4932584;29;20083;-87
2022/10/19 12:15:10;;;;;;;4.97;2.40;;;25.20;48.10;;;;;;4931423;29;20031;-83
2022/10/19 12:17:38;;;;;;;5.55;2.40;;;25.10;48.40;;;;;;4922081;29;20032;-83
2022/10/19 12:20:14;;;;;;;4.57;2.30;;;25.30;48.80;;;;;;4934241;29;20036;-84
2022/10/19 12:22:41;;;;;;;4.65;2.28;;;25.50;48.60;;;;;;4934983;28;20554;-89
2022/10/19 12:25:13;;;;;;;5.18;2.50;;;25.30;48.50;;;;;;4918760;29;20042;-93
2022/10/19 12:27:41;;;;;;;4.82;2.50;;;25.30;48.70;;;;;;4934709;29;20058;-84
2022/10/19 12:30:18;;;;;;;5.40;2.60;;;25.40;49.40;;;;;;4983530;28;20029;-89
2022/10/19 12:33:14;;;;;;;3.80;2.53;;;24.90;49.20;;;;;;5014093;28;20025;-89
2022/10/19 12:36:04;;;;;;;4.75;2.58;;;24.80;48.90;;;;;;5013816;28;20033;-82
2022/10/19 12:38:47;;;;;;;5.97;2.53;;;24.90;49.00;;;;;;5013654;28;20076;-83
2022/10/19 12:41:39;;;;;;;3.40;2.40;;;24.90;49.40;;;;;;4995962;28;20493;-88
2022/10/19 12:44:14;;;;;;;4.00;2.67;;;25.10;49.20;;;;;;5017524;28;20465;-84
2022/10/19 12:46:54;;;;;;;3.88;2.60;;;25.20;48.90;;;;;;4999716;28;20038;-84
2022/10/19 12:49:26;;;;;;;;;;;25.40;48.70;;;;;;5018658;28;20022;-89
2022/10/19 12:51:54;;;;;;;4.78;2.70;;;25.10;48.40;;;;;;5033230;28;20241;-84
2022/10/19 12:54:25;;;;;;;4.20;2.90;;;24.70;48.80;;;;;;5000193;28;20341;-85
2022/10/19 12:56:53;;;;;;;4.78;2.60;;;24.70;49.20;;;;;;5017683;28;20049;-81